Time;durP1;ratioP1;P1;durP2;ratioP2;P2;SDS_P1;SDS_P2;PMS_P1;PMS_P2;Temp;Humidity;BMP_temperature;BMP_pressure;BME280_temperature;BME280_humidity;BME280_pressure;Samples;Min_cycle;Max_cycle;Signal;HPM_P1;HPM_P2
2022/09/19 00:01:36;;;;;;;5.53;1.88;;;12.90;72.20;;;;;;5126949;27;20118;-68
2022/09/19 00:04:05;;;;;;;5.40;1.20;;;12.90;72.20;;;;;;5120591;27;20047;-68
2022/09/19 00:06:35;;;;;;;4.47;1.25;;;12.90;72.20;;;;;;5112267;28;20042;-68
2022/09/19 00:09:01;;;;;;;7.13;1.45;;;12.90;72.20;;;;;;5112053;28;20079;-68
2022/09/19 00:11:27;;;;;;;11.27;1.98;;;12.90;72.10;;;;;;5111962;28;20039;-68
2022/09/19 00:13:54;;;;;;;7.07;1.48;;;12.90;72.10;;;;;;5112019;28;20443;-68
2022/09/19 00:16:30;;;;;;;7.55;1.90;;;12.90;72.40;;;;;;5109801;28;20093;-68
2022/09/19 00:18:58;;;;;;;5.28;1.48;;;13.00;72.10;;;;;;5094793;28;20495;-68
2022/09/19 00:21:29;;;;;;;6.93;1.30;;;13.00;72.00;;;;;;5110077;28;20140;-68
2022/09/19 00:26:41;;;;;;;9.45;1.70;;;13.00;71.90;;;;;;5111948;28;20047;-68
2022/09/19 00:29:09;;;;;;;9.13;2.10;;;12.90;72.00;;;;;;5112113;28;20040;-68
2022/09/19 00:31:35;;;;;;;8.13;1.98;;;13.00;72.20;;;;;;5111178;28;20039;-68
2022/09/19 00:34:06;;;;;;;6.80;1.50;;;12.90;72.20;;;;;;5111554;28;20040;-68
2022/09/19 00:36:33;;;;;;;6.13;1.58;;;12.90;72.10;;;;;;5092279;28;20035;-68
2022/09/19 00:38:59;;;;;;;6.22;1.48;;;12.90;72.10;;;;;;5091620;28;20044;-68
2022/09/19 00:41:26;;;;;;;6.18;1.50;;;12.90;72.00;;;;;;5106785;28;20075;-68
2022/09/19 00:43:59;;;;;;;7.35;1.38;;;12.90;71.90;;;;;;5111993;28;20050;-68
2022/09/19 00:46:28;;;;;;;6.50;2.08;;;13.00;71.90;;;;;;5111550;28;20035;-68
2022/09/19 00:49:10;;;;;;;4.78;1.50;;;12.90;71.80;;;;;;5111419;28;20040;-66
2022/09/19 00:51:49;;;;;;;8.15;1.45;;;13.00;71.60;;;;;;5111256;28;20052;-66
2022/09/19 00:54:22;;;;;;;3.53;1.10;;;12.90;71.60;;;;;;5111900;28;20426;-65
2022/09/19 00:56:52;;;;;;;6.03;2.03;;;12.90;71.50;;;;;;5111831;28;20100;-66
2022/09/19 00:59:21;;;;;;;4.43;1.30;;;12.90;71.60;;;;;;5111700;28;20479;-66
2022/09/19 01:01:48;;;;;;;6.28;1.65;;;13.00;71.50;;;;;;5111048;28;20043;-66
2022/09/19 01:04:21;;;;;;;7.38;1.50;;;13.00;71.50;;;;;;5111232;28;20039;-66
2022/09/19 01:07:03;;;;;;;7.28;1.48;;;13.00;71.50;;;;;;5114015;28;20097;-66
2022/09/19 01:09:47;;;;;;;5.38;1.23;;;13.00;71.50;;;;;;5108392;28;20062;-66
2022/09/19 01:12:31;;;;;;;9.10;1.77;;;13.00;71.40;;;;;;5114818;28;20039;-65
2022/09/19 01:15:12;;;;;;;7.13;1.63;;;13.00;71.30;;;;;;5115190;28;20127;-66
2022/09/19 01:17:51;;;;;;;7.57;2.17;;;13.00;71.40;;;;;;5111867;28;20067;-66
2022/09/19 01:20:26;;;;;;;5.32;1.10;;;12.90;71.40;;;;;;5096304;28;20494;-66
2022/09/19 01:23:32;;;;;;;8.00;1.40;;;12.90;71.30;;;;;;5114611;28;20056;-66
2022/09/19 01:26:15;;;;;;;7.80;2.15;;;12.90;71.30;;;;;;5114464;28;20032;-66
2022/09/19 01:28:59;;;;;;;5.40;1.35;;;12.90;71.40;;;;;;5115365;28;20077;-66
2022/09/19 01:31:30;;;;;;;6.22;1.63;;;12.90;71.40;;;;;;5113939;27;20047;-66
2022/09/19 01:34:12;;;;;;;4.93;1.10;;;12.90;71.90;;;;;;5113710;28;20051;-66
2022/09/19 01:36:52;;;;;;;6.43;1.58;;;12.80;71.40;;;;;;5115001;28;20054;-66
2022/09/19 01:39:23;;;;;;;8.25;1.98;;;12.80;71.40;;;;;;5116344;28;20050;-66
2022/09/19 01:41:53;;;;;;;8.15;1.60;;;12.80;71.40;;;;;;5114435;28;20054;-66
2022/09/19 01:44:22;;;;;;;7.25;1.40;;;12.80;71.30;;;;;;5114177;28;20044;-66
2022/09/19 01:47:19;;;;;;;6.28;1.23;;;12.70;71.20;;;;;;5114810;28;20066;-66
2022/09/19 01:50:09;;;;;;;4.55;1.00;;;12.80;71.10;;;;;;5114820;28;20046;-66
2022/09/19 01:53:01;;;;;;;7.32;1.30;;;12.70;71.00;;;;;;5114348;28;20043;-66
2022/09/19 01:55:41;;;;;;;4.40;0.80;;;12.70;71.00;;;;;;5094575;28;20357;-66
2022/09/19 01:58:25;;;;;;;7.43;1.35;;;12.70;71.10;;;;;;5129830;27;20036;-66
2022/09/19 02:01:03;;;;;;;7.20;1.58;;;12.70;71.00;;;;;;5116069;27;20131;-66
2022/09/19 02:03:46;;;;;;;4.90;1.33;;;12.70;70.90;;;;;;5114167;27;20138;-66
2022/09/19 02:06:37;;;;;;;4.85;1.10;;;12.70;70.90;;;;;;5114119;28;20486;-66
2022/09/19 02:09:26;;;;;;;5.63;1.10;;;12.70;70.80;;;;;;5114264;28;20069;-66
2022/09/19 02:11:52;;;;;;;6.15;1.42;;;12.60;70.80;;;;;;5113910;28;20103;-66
2022/09/19 02:14:24;;;;;;;6.70;1.30;;;12.60;70.80;;;;;;5114386;28;20475;-66
2022/09/19 02:17:12;;;;;;;7.10;1.70;;;12.60;70.80;;;;;;5115264;28;20043;-66
2022/09/19 02:19:43;;;;;;;7.82;1.52;;;12.70;70.70;;;;;;5113165;28;20064;-65
2022/09/19 02:22:26;;;;;;;9.00;1.30;;;12.60;70.70;;;;;;5113696;28;20055;-65
2022/09/19 02:24:58;;;;;;;5.40;1.23;;;12.60;70.60;;;;;;5113745;28;20043;-65
2022/09/19 02:27:48;;;;;;;7.43;1.50;;;12.60;70.60;;;;;;5113538;28;20036;-65
2022/09/19 02:30:15;;;;;;;7.90;1.95;;;12.60;70.60;;;;;;5113764;28;20506;-65
2022/09/19 02:32:47;;;;;;;8.90;1.80;;;12.60;70.50;;;;;;5113597;28;20036;-66
2022/09/19 02:35:19;;;;;;;6.28;1.27;;;12.50;70.50;;;;;;5113688;28;20058;-66
2022/09/19 02:37:55;;;;;;;7.38;1.40;;;12.50;70.40;;;;;;5113274;28;20071;-66
2022/09/19 02:40:36;;;;;;;8.20;2.03;;;12.50;70.40;;;;;;5113665;28;20092;-66
2022/09/19 02:43:17;;;;;;;10.48;2.17;;;12.40;70.30;;;;;;5113366;28;20122;-66
2022/09/19 02:45:51;;;;;;;7.32;1.10;;;12.50;70.40;;;;;;5110669;28;20395;-66
2022/09/19 02:48:48;;;;;;;9.88;2.15;;;12.40;70.40;;;;;;5106412;28;20118;-66
2022/09/19 02:51:30;;;;;;;6.88;1.20;;;12.40;70.40;;;;;;5113179;28;20047;-66
2022/09/19 02:54:06;;;;;;;8.95;1.20;;;12.40;70.40;;;;;;5113130;28;20040;-65
2022/09/19 02:56:34;;;;;;;11.85;2.13;;;12.40;70.40;;;;;;5113506;28;20079;-65
2022/09/19 02:59:20;;;;;;;7.25;1.60;;;12.40;70.50;;;;;;5096043;28;20047;-65
2022/09/19 03:01:51;;;;;;;6.97;1.58;;;12.40;70.60;;;;;;5113164;28;20048;-65
2022/09/19 03:04:23;;;;;;;7.00;1.48;;;12.40;70.80;;;;;;5112701;28;20051;-65
2022/09/19 03:07:11;;;;;;;8.82;1.50;;;12.30;70.80;;;;;;5113216;28;20104;-65
2022/09/19 03:09:40;;;;;;;7.95;1.98;;;12.30;70.90;;;;;;5089950;28;20032;-65
2022/09/19 03:12:14;;;;;;;8.90;1.85;;;12.30;71.00;;;;;;5113237;28;20436;-65
2022/09/19 03:14:40;;;;;;;8.05;1.25;;;12.30;71.10;;;;;;5113193;28;20122;-65
2022/09/19 03:17:07;;;;;;;8.52;1.42;;;12.30;71.10;;;;;;5113283;28;20391;-65
2022/09/19 03:19:33;;;;;;;5.20;1.77;;;12.30;71.20;;;;;;5112675;28;20043;-65
2022/09/19 03:21:59;;;;;;;8.43;1.88;;;12.30;71.20;;;;;;5112562;28;20043;-65
2022/09/19 03:24:26;;;;;;;7.35;1.67;;;12.30;71.20;;;;;;5112488;28;20040;-65
2022/09/19 03:26:51;;;;;;;14.88;2.20;;;12.40;71.30;;;;;;5112230;28;20043;-65
2022/09/19 03:29:17;;;;;;;8.70;1.67;;;12.30;71.20;;;;;;5095580;28;20050;-65
2022/09/19 03:31:45;;;;;;;4.38;1.52;;;12.40;71.20;;;;;;5111884;28;20122;-66
2022/09/19 03:34:12;;;;;;;7.10;1.30;;;12.40;71.10;;;;;;5112546;28;20379;-65
2022/09/19 03:36:40;;;;;;;5.30;1.55;;;12.40;71.10;;;;;;5112728;28;20039;-65
2022/09/19 03:39:06;;;;;;;5.65;1.40;;;12.40;71.10;;;;;;5112534;28;20091;-65
2022/09/19 03:41:32;;;;;;;7.38;1.80;;;12.30;71.00;;;;;;5095125;28;20466;-65
2022/09/19 03:44:02;;;;;;;13.68;2.45;;;12.40;71.10;;;;;;5112430;28;20062;-65
2022/09/19 03:46:32;;;;;;;8.07;1.98;;;12.40;71.20;;;;;;5095631;28;20043;-65
2022/09/19 03:49:00;;;;;;;7.38;1.63;;;12.40;71.50;;;;;;5112527;28;20043;-66
2022/09/19 03:51:26;;;;;;;5.13;1.48;;;12.30;71.40;;;;;;5112684;28;20043;-66
2022/09/19 03:53:52;;;;;;;8.60;1.92;;;12.30;71.50;;;;;;5111958;28;20047;-66
2022/09/19 03:56:17;;;;;;;7.07;1.80;;;12.30;71.50;;;;;;5095263;28;20035;-66
2022/09/19 03:58:43;;;;;;;9.20;1.63;;;12.30;71.50;;;;;;5111798;28;20061;-66
2022/09/19 04:01:11;;;;;;;5.80;1.45;;;12.30;71.60;;;;;;5111571;28;20032;-66
2022/09/19 04:03:37;;;;;;;6.10;1.50;;;12.30;71.60;;;;;;5111595;28;20581;-66
2022/09/19 04:06:04;;;;;;;6.22;1.33;;;12.30;71.60;;;;;;5111913;28;20047;-66
2022/09/19 04:08:31;;;;;;;6.47;1.63;;;12.30;71.60;;;;;;5112246;28;20067;-66
2022/09/19 04:10:59;;;;;;;5.93;1.42;;;12.30;71.60;;;;;;5111776;28;20044;-66
2022/09/19 04:13:24;;;;;;;5.22;1.50;;;12.20;71.40;;;;;;5111703;28;20073;-66
2022/09/19 04:15:51;;;;;;;6.63;1.67;;;12.30;71.40;;;;;;5112125;28;20143;-66
2022/09/19 04:18:17;;;;;;;9.32;1.27;;;12.30;71.40;;;;;;5111730;28;20120;-66
2022/09/19 04:20:45;;;;;;;5.78;1.50;;;12.30;71.30;;;;;;5110891;28;20039;-66
2022/09/19 04:23:13;;;;;;;9.07;1.55;;;12.30;71.20;;;;;;5111842;28;20402;-68
2022/09/19 04:25:39;;;;;;;11.55;2.13;;;12.30;71.10;;;;;;5111752;28;20064;-68
2022/09/19 04:28:09;;;;;;;11.80;2.17;;;12.30;71.00;;;;;;5111643;28;20437;-68
2022/09/19 04:30:36;;;;;;;6.20;1.42;;;12.30;70.90;;;;;;5111412;28;20031;-68
2022/09/19 04:33:03;;;;;;;10.68;2.25;;;12.30;70.70;;;;;;5111987;28;20054;-68
2022/09/19 04:35:35;;;;;;;6.15;1.58;;;12.20;70.50;;;;;;5122183;28;20102;-68
2022/09/19 04:38:08;;;;;;;6.90;1.42;;;12.20;70.50;;;;;;5128277;28;20036;-68
2022/09/19 04:40:42;;;;;;;8.02;1.58;;;12.20;70.40;;;;;;5111746;28;20069;-68
2022/09/19 04:43:09;;;;;;;8.35;1.48;;;12.20;70.40;;;;;;5098085;28;20389;-68
2022/09/19 04:45:36;;;;;;;6.97;1.35;;;12.10;70.30;;;;;;5115810;28;20027;-68
2022/09/19 04:48:05;;;;;;;6.20;1.70;;;12.10;70.30;;;;;;5115857;28;20487;-68
2022/09/19 04:50:34;;;;;;;6.10;1.70;;;12.10;70.30;;;;;;5115876;28;20419;-68
2022/09/19 04:53:00;;;;;;;7.97;1.65;;;12.10;70.30;;;;;;5115040;28;20043;-68
2022/09/19 04:55:27;;;;;;;6.70;1.30;;;12.10;70.30;;;;;;5115210;28;20035;-68
2022/09/19 04:57:54;;;;;;;5.47;1.50;;;12.10;70.30;;;;;;5115732;28;20044;-68
2022/09/19 05:00:37;;;;;;;8.02;1.45;;;12.10;70.30;;;;;;5098294;28;20041;-68
2022/09/19 05:03:16;;;;;;;8.65;1.52;;;12.00;70.20;;;;;;5115163;28;20503;-68
2022/09/19 05:05:44;;;;;;;5.28;1.33;;;12.10;70.30;;;;;;5115255;28;20036;-68
2022/09/19 05:08:12;;;;;;;9.43;2.03;;;12.00;70.20;;;;;;5115716;27;20120;-68
2022/09/19 05:10:38;;;;;;;5.43;1.10;;;12.00;70.20;;;;;;5115205;28;20047;-68
2022/09/19 05:13:04;;;;;;;5.43;0.90;;;12.00;70.20;;;;;;5098351;28;20042;-68
2022/09/19 05:15:30;;;;;;;7.80;1.98;;;12.00;70.20;;;;;;5115230;28;20036;-68
2022/09/19 05:17:56;;;;;;;6.60;1.65;;;12.00;70.20;;;;;;5098220;28;20046;-68
2022/09/19 05:20:26;;;;;;;5.55;1.30;;;12.00;70.10;;;;;;5114703;28;20070;-68
2022/09/19 05:22:58;;;;;;;4.50;1.17;;;12.00;70.10;;;;;;5114869;28;20075;-68
2022/09/19 05:25:28;;;;;;;5.47;1.10;;;12.00;70.10;;;;;;5115072;28;20042;-68
2022/09/19 05:27:56;;;;;;;6.80;1.52;;;11.90;70.00;;;;;;5114978;28;20037;-68
2022/09/19 05:30:26;;;;;;;7.80;1.63;;;11.90;69.90;;;;;;5114456;28;20516;-68
2022/09/19 05:32:52;;;;;;;8.75;1.67;;;11.90;69.90;;;;;;5114934;28;20079;-68
2022/09/19 05:35:18;;;;;;;3.42;0.73;;;11.90;69.80;;;;;;5115054;28;20079;-68
2022/09/19 05:37:47;;;;;;;6.45;1.30;;;11.90;69.90;;;;;;5114791;28;20039;-68
2022/09/19 05:40:13;;;;;;;8.77;1.77;;;11.90;69.90;;;;;;5114856;28;20043;-68
2022/09/19 05:42:43;;;;;;;5.18;1.77;;;11.90;70.00;;;;;;5097316;28;20040;-68
2022/09/19 05:45:10;;;;;;;6.45;1.67;;;11.80;70.00;;;;;;5097741;28;20043;-68
2022/09/19 05:47:39;;;;;;;5.80;1.42;;;11.80;70.10;;;;;;5097180;28;20037;-68
2022/09/19 05:50:07;;;;;;;7.35;1.60;;;11.80;70.10;;;;;;5114579;28;20043;-68
2022/09/19 05:55:21;;;;;;;7.53;1.30;;;11.80;70.20;;;;;;5113830;28;20043;-67
2022/09/19 05:57:52;;;;;;;7.20;1.30;;;11.80;70.20;;;;;;5114672;28;20035;-68
2022/09/19 06:00:19;;;;;;;8.68;1.73;;;11.70;70.10;;;;;;5120922;27;20051;-68
2022/09/19 06:02:51;;;;;;;7.03;1.75;;;11.70;70.10;;;;;;5118251;27;20118;-68
2022/09/19 06:05:17;;;;;;;6.38;1.55;;;11.80;70.20;;;;;;5113781;28;20479;-68
2022/09/19 06:07:43;;;;;;;7.45;1.52;;;11.70;70.30;;;;;;5097653;28;20058;-68
2022/09/19 06:10:09;;;;;;;10.90;2.15;;;11.70;70.50;;;;;;5114284;28;20395;-68
2022/09/19 06:12:34;;;;;;;6.10;1.60;;;11.80;70.60;;;;;;5113654;28;20448;-68
2022/09/19 06:15:00;;;;;;;8.23;1.73;;;11.90;70.70;;;;;;5114221;28;20039;-68
2022/09/19 06:17:27;;;;;;;7.10;1.58;;;11.90;70.60;;;;;;5113556;28;20059;-68
2022/09/19 06:19:52;;;;;;;10.88;1.70;;;11.90;70.60;;;;;;5096521;28;20043;-69
2022/09/19 06:22:18;;;;;;;6.18;1.13;;;11.90;70.70;;;;;;5113470;28;20112;-68
2022/09/19 06:24:44;;;;;;;7.47;1.23;;;12.00;70.60;;;;;;5115135;28;20047;-68
2022/09/19 06:27:09;;;;;;;6.55;1.52;;;12.00;70.60;;;;;;5096926;28;20067;-68
2022/09/19 06:29:35;;;;;;;6.00;1.50;;;12.10;70.60;;;;;;5113637;28;20048;-68
2022/09/19 06:32:02;;;;;;;8.13;2.42;;;12.10;70.60;;;;;;5114249;28;20126;-68
2022/09/19 06:34:28;;;;;;;8.65;1.63;;;12.10;70.60;;;;;;5113608;28;20054;-68
2022/09/19 06:36:53;;;;;;;7.28;1.20;;;12.20;70.70;;;;;;5113853;28;20028;-68
2022/09/19 06:39:19;;;;;;;6.60;1.23;;;12.20;70.70;;;;;;5113696;28;20058;-68
2022/09/19 06:41:47;;;;;;;10.30;1.42;;;12.20;70.70;;;;;;5113597;28;20035;-68
2022/09/19 06:44:13;;;;;;;6.95;1.63;;;12.30;70.80;;;;;;5097229;28;20047;-68
2022/09/19 06:46:39;;;;;;;8.77;2.03;;;12.30;70.80;;;;;;5096559;28;20550;-69
2022/09/19 06:49:07;;;;;;;7.53;1.65;;;12.30;70.70;;;;;;5112654;28;20120;-68
2022/09/19 06:51:33;;;;;;;7.35;1.52;;;12.30;70.50;;;;;;5113172;27;20463;-69
2022/09/19 06:54:00;;;;;;;8.27;1.70;;;12.30;70.90;;;;;;5113266;28;20051;-68
2022/09/19 06:56:25;;;;;;;8.95;1.27;;;12.30;70.50;;;;;;5113301;28;20046;-68
2022/09/19 06:58:51;;;;;;;7.13;1.40;;;12.40;70.60;;;;;;5113282;28;20039;-68
2022/09/19 07:01:17;;;;;;;9.25;1.40;;;12.40;70.60;;;;;;5113300;28;20089;-69
2022/09/19 07:03:43;;;;;;;6.90;1.30;;;12.40;70.70;;;;;;5113371;28;20368;-69
2022/09/19 07:06:09;;;;;;;7.43;1.45;;;12.50;70.80;;;;;;5112229;28;20034;-67
2022/09/19 07:08:35;;;;;;;7.30;1.40;;;12.50;70.90;;;;;;5112596;28;20071;-68
2022/09/19 07:11:01;;;;;;;7.53;1.33;;;12.50;70.90;;;;;;5112957;28;20124;-68
2022/09/19 07:13:26;;;;;;;9.40;1.65;;;12.50;71.00;;;;;;5113082;28;20397;-68
2022/09/19 07:15:52;;;;;;;6.88;1.67;;;12.60;71.10;;;;;;5112848;28;20067;-68
2022/09/19 07:18:18;;;;;;;5.57;1.20;;;12.60;71.20;;;;;;5095900;28;20038;-68
2022/09/19 07:20:43;;;;;;;7.10;1.58;;;12.60;71.30;;;;;;5113035;28;20046;-68
2022/09/19 07:23:13;;;;;;;7.65;1.48;;;12.70;71.30;;;;;;5112856;28;20098;-68
2022/09/19 07:25:40;;;;;;;7.25;1.80;;;12.70;71.30;;;;;;5111701;28;20043;-68
2022/09/19 07:28:09;;;;;;;9.50;1.58;;;12.80;71.40;;;;;;5112843;28;20028;-68
2022/09/19 07:30:35;;;;;;;10.35;2.00;;;12.80;71.50;;;;;;5112547;28;20035;-68
2022/09/19 07:33:03;;;;;;;8.55;1.63;;;12.90;71.70;;;;;;5112694;28;20511;-68
2022/09/19 07:35:32;;;;;;;9.27;1.83;;;12.90;71.70;;;;;;5112530;28;20047;-68
2022/09/19 07:37:58;;;;;;;8.48;1.83;;;13.00;71.60;;;;;;5112617;28;20483;-68
2022/09/19 07:40:24;;;;;;;7.35;1.40;;;13.00;71.40;;;;;;5112763;28;20039;-68
2022/09/19 07:42:52;;;;;;;6.47;1.83;;;13.10;71.30;;;;;;5095443;28;20052;-67
2022/09/19 07:45:18;;;;;;;9.95;1.60;;;13.20;71.20;;;;;;5112137;28;20078;-67
2022/09/19 07:47:46;;;;;;;9.50;1.48;;;13.10;71.60;;;;;;5112265;28;20067;-67
2022/09/19 07:50:14;;;;;;;6.47;1.52;;;13.30;71.30;;;;;;5112371;28;20126;-69
2022/09/19 07:52:41;;;;;;;9.55;1.80;;;13.30;71.30;;;;;;5112677;28;20131;-68
2022/09/19 07:55:07;;;;;;;9.13;1.63;;;13.40;71.40;;;;;;5108730;28;20479;-68
2022/09/19 07:57:33;;;;;;;7.28;1.67;;;13.50;71.20;;;;;;5095432;28;20447;-68
2022/09/19 08:00:00;;;;;;;9.43;2.22;;;13.60;70.90;;;;;;5095121;28;20067;-68
2022/09/19 08:02:25;;;;;;;5.38;1.45;;;13.70;70.80;;;;;;5112434;28;20108;-68
2022/09/19 08:04:51;;;;;;;7.70;1.50;;;13.80;70.70;;;;;;5111478;28;20486;-68
2022/09/19 08:07:17;;;;;;;8.23;1.40;;;14.00;70.40;;;;;;5111689;28;20051;-68
2022/09/19 08:09:43;;;;;;;8.05;1.63;;;14.20;70.10;;;;;;5111046;28;20514;-69
2022/09/19 08:12:11;;;;;;;6.45;1.33;;;14.50;69.90;;;;;;5111752;28;20043;-69
2022/09/19 08:14:38;;;;;;;6.13;1.17;;;14.70;69.50;;;;;;5111842;28;20181;-69
2022/09/19 08:17:03;;;;;;;8.30;1.83;;;15.00;68.90;;;;;;5111706;28;20391;-69
2022/09/19 08:19:29;;;;;;;10.88;1.52;;;15.20;68.10;;;;;;5111242;28;20131;-69
2022/09/19 08:21:57;;;;;;;9.90;1.50;;;15.40;67.20;;;;;;5111653;28;20048;-70
2022/09/19 08:24:22;;;;;;;5.05;1.27;;;15.70;66.70;;;;;;5111733;28;20058;-69
2022/09/19 08:26:48;;;;;;;5.13;1.50;;;15.90;66.10;;;;;;5111330;28;20032;-69
2022/09/19 08:29:14;;;;;;;7.85;1.40;;;16.20;65.60;;;;;;5111821;28;20042;-70
2022/09/19 08:31:39;;;;;;;4.88;1.25;;;16.40;64.80;;;;;;5094747;28;20051;-70
2022/09/19 08:34:05;;;;;;;7.85;1.67;;;16.60;63.20;;;;;;5112284;28;20474;-69
2022/09/19 08:36:33;;;;;;;7.30;1.65;;;16.80;62.20;;;;;;5111385;28;20118;-69
2022/09/19 08:38:59;;;;;;;7.75;1.63;;;17.00;62.30;;;;;;5095201;28;20126;-70
2022/09/19 08:41:49;;;;;;;7.38;1.42;;;17.20;61.90;;;;;;5111510;28;20547;-69
2022/09/19 08:44:44;;;;;;;4.53;1.30;;;17.50;60.90;;;;;;5111921;28;20108;-69
2022/09/19 08:47:13;;;;;;;5.75;1.33;;;17.70;60.40;;;;;;5120680;28;20044;-69
2022/09/19 08:50:11;;;;;;;6.38;1.27;;;17.80;60.30;;;;;;5129075;28;20039;-69
2022/09/19 08:52:52;;;;;;;8.07;1.83;;;17.90;59.40;;;;;;5091109;28;20189;-69
2022/09/19 08:55:22;;;;;;;7.03;1.20;;;18.10;59.30;;;;;;5114977;28;20429;-69
2022/09/19 08:58:13;;;;;;;6.00;1.30;;;18.20;58.60;;;;;;5108606;28;20495;-69
2022/09/19 09:00:42;;;;;;;9.15;1.50;;;18.40;57.70;;;;;;5111447;28;20050;-69
2022/09/19 09:03:16;;;;;;;6.53;1.50;;;18.40;57.30;;;;;;5093693;28;20036;-69
2022/09/19 09:05:57;;;;;;;7.28;1.50;;;18.50;57.50;;;;;;5107520;28;20101;-69
2022/09/19 09:08:47;;;;;;;5.93;1.30;;;18.60;57.50;;;;;;5119677;28;20042;-69
2022/09/19 09:11:33;;;;;;;6.95;1.35;;;18.70;57.60;;;;;;5110463;28;20036;-72
2022/09/19 09:14:05;;;;;;;10.10;2.00;;;18.90;57.70;;;;;;5093695;28;20122;-72
2022/09/19 09:16:44;;;;;;;6.30;1.65;;;18.90;57.40;;;;;;5107949;28;20040;-69
2022/09/19 09:19:22;;;;;;;10.02;1.73;;;19.00;56.50;;;;;;5108576;28;20513;-69
2022/09/19 09:21:54;;;;;;;5.93;1.35;;;19.10;56.30;;;;;;5110910;28;20059;-69
2022/09/19 09:24:24;;;;;;;8.55;2.33;;;19.20;56.00;;;;;;5111888;28;20044;-68
2022/09/19 09:26:56;;;;;;;8.77;1.92;;;19.30;55.50;;;;;;5111566;28;20075;-68
2022/09/19 09:29:30;;;;;;;8.57;2.03;;;19.40;55.50;;;;;;5113094;28;20044;-68
2022/09/19 09:32:22;;;;;;;10.13;2.28;;;19.40;54.40;;;;;;5131917;27;20506;-68
2022/09/19 09:34:58;;;;;;;12.10;2.38;;;19.30;54.10;;;;;;5098149;28;20054;-68
2022/09/19 09:37:33;;;;;;;7.35;1.92;;;19.30;54.30;;;;;;5116099;28;20114;-68
2022/09/19 09:40:12;;;;;;;7.75;2.30;;;19.20;54.30;;;;;;5115067;28;20036;-68
2022/09/19 09:42:50;;;;;;;9.13;1.90;;;19.10;54.70;;;;;;5114644;28;20075;-68
2022/09/19 09:45:39;;;;;;;8.68;1.85;;;19.10;54.30;;;;;;5115241;28;20036;-68
2022/09/19 09:48:10;;;;;;;10.27;2.33;;;19.00;54.10;;;;;;5099986;28;20100;-68
2022/09/19 09:51:02;;;;;;;10.07;2.30;;;19.00;53.90;;;;;;5114509;28;20055;-68
2022/09/19 09:54:04;;;;;;;10.55;2.17;;;19.00;53.50;;;;;;5114681;28;20039;-69
2022/09/19 09:56:51;;;;;;;7.53;1.98;;;19.00;54.00;;;;;;5114250;28;20551;-69
2022/09/19 10:05:14;;;;;;;8.48;1.98;;;19.00;54.80;;;;;;5114304;28;20334;-68
2022/09/19 10:07:47;;;;;;;9.00;2.17;;;18.90;53.90;;;;;;5114074;28;20055;-68
2022/09/19 10:10:20;;;;;;;9.20;2.03;;;18.90;53.90;;;;;;5114455;28;20032;-68
2022/09/19 10:12:55;;;;;;;7.73;2.00;;;18.80;53.70;;;;;;5115593;28;20118;-68
2022/09/19 10:15:24;;;;;;;8.77;1.77;;;18.80;54.20;;;;;;5114475;28;20629;-68
2022/09/19 10:17:57;;;;;;;5.18;1.13;;;18.70;53.80;;;;;;5114088;28;20490;-68
2022/09/19 10:20:31;;;;;;;9.65;1.98;;;18.60;52.60;;;;;;5094054;28;20549;-68
2022/09/19 10:22:57;;;;;;;3.72;1.13;;;18.50;52.40;;;;;;5110290;28;20055;-69
2022/09/19 10:25:26;;;;;;;5.03;1.27;;;18.30;52.70;;;;;;5096917;28;20040;-68
2022/09/19 10:27:52;;;;;;;4.78;1.08;;;18.30;52.70;;;;;;5114122;28;20047;-68
2022/09/19 10:30:29;;;;;;;4.78;1.10;;;18.20;53.30;;;;;;5097049;28;20036;-68
2022/09/19 10:32:54;;;;;;;5.32;1.27;;;18.20;53.70;;;;;;5094898;28;20048;-68
2022/09/19 10:35:28;;;;;;;5.18;1.25;;;18.20;54.10;;;;;;5098631;28;20440;-68
2022/09/19 10:38:05;;;;;;;5.68;1.40;;;18.20;54.50;;;;;;5103604;28;20079;-68
2022/09/19 10:40:32;;;;;;;5.47;1.35;;;18.30;54.00;;;;;;5113978;28;20371;-69
2022/09/19 10:43:00;;;;;;;5.05;1.33;;;18.30;54.30;;;;;;5076492;28;20051;-68
2022/09/19 10:45:37;;;;;;;4.85;1.27;;;18.30;54.60;;;;;;5095027;28;20078;-68
2022/09/19 10:48:22;;;;;;;7.72;1.55;;;18.30;55.00;;;;;;5113676;28;20043;-69
2022/09/19 10:50:48;;;;;;;4.55;0.90;;;18.40;54.80;;;;;;5113592;28;20118;-68
2022/09/19 10:53:22;;;;;;;5.18;1.70;;;18.40;53.80;;;;;;5113077;28;20039;-66
2022/09/19 10:55:48;;;;;;;5.53;1.55;;;18.50;53.80;;;;;;5112985;28;20498;-67
2022/09/19 10:58:18;;;;;;;6.53;1.40;;;18.50;54.00;;;;;;5093143;28;20495;-67
2022/09/19 11:01:01;;;;;;;6.15;1.92;;;18.60;53.90;;;;;;5093071;28;20043;-67
2022/09/19 11:03:39;;;;;;;7.97;1.52;;;18.60;53.90;;;;;;5110087;28;20051;-67
2022/09/19 11:06:16;;;;;;;9.13;1.80;;;18.50;54.00;;;;;;5119314;27;20119;-67
2022/09/19 11:08:44;;;;;;;7.45;1.75;;;18.50;54.20;;;;;;5112863;28;20035;-64
2022/09/19 11:11:47;;;;;;;6.63;1.92;;;18.50;54.70;;;;;;5096636;28;20038;-64
2022/09/19 11:14:15;;;;;;;7.72;1.98;;;18.40;55.50;;;;;;5090145;28;20054;-64
2022/09/19 11:17:13;;;;;;;5.88;1.48;;;18.40;55.80;;;;;;5112796;28;20082;-64
2022/09/19 11:20:03;;;;;;;6.15;1.90;;;18.40;56.30;;;;;;5101347;28;20048;-67
2022/09/19 11:23:03;;;;;;;6.85;1.27;;;18.30;56.50;;;;;;5110916;28;20052;-64
2022/09/19 11:25:41;;;;;;;6.68;1.30;;;18.30;56.50;;;;;;5112051;27;20483;-64
2022/09/19 11:28:18;;;;;;;6.07;1.25;;;18.20;56.50;;;;;;5124971;27;20475;-64
2022/09/19 11:31:17;;;;;;;4.50;1.00;;;18.00;56.90;;;;;;5112834;28;20035;-64
2022/09/19 11:34:02;;;;;;;6.97;1.48;;;17.90;56.20;;;;;;5101982;28;20047;-64
2022/09/19 11:36:27;;;;;;;5.53;1.17;;;17.60;56.70;;;;;;5113750;28;20089;-64
2022/09/19 11:39:08;;;;;;;7.75;2.08;;;17.50;57.20;;;;;;5095819;28;20421;-64
2022/09/19 11:41:52;;;;;;;6.57;1.58;;;17.40;58.10;;;;;;5112712;28;20040;-63
2022/09/19 11:44:26;;;;;;;7.75;1.90;;;17.20;58.20;;;;;;5112933;28;20044;-64
2022/09/19 11:47:13;;;;;;;4.78;1.42;;;17.10;58.80;;;;;;5112253;28;20127;-64
2022/09/19 11:49:57;;;;;;;10.60;1.98;;;17.00;59.20;;;;;;5102756;28;20044;-64
2022/09/19 11:52:32;;;;;;;9.40;1.50;;;16.90;59.60;;;;;;5111906;28;20035;-64
2022/09/19 11:55:10;;;;;;;7.55;1.70;;;16.80;60.00;;;;;;5112320;28;20040;-64
2022/09/19 11:57:46;;;;;;;6.15;1.33;;;16.80;60.60;;;;;;5099822;28;20398;-65
2022/09/19 12:00:20;;;;;;;8.00;1.60;;;16.70;60.80;;;;;;5112704;28;20054;-65
2022/09/19 12:03:02;;;;;;;8.18;1.85;;;16.70;61.70;;;;;;5111923;28;20040;-65
2022/09/19 12:05:49;;;;;;;8.23;2.15;;;16.60;62.80;;;;;;5111619;28;20077;-65
2022/09/19 12:08:59;;;;;;;8.50;2.08;;;16.60;63.30;;;;;;5105153;28;20478;-65
2022/09/19 12:11:38;;;;;;;5.95;1.58;;;16.70;63.80;;;;;;5094980;28;20133;-65
2022/09/19 12:14:13;;;;;;;7.65;1.60;;;16.70;63.90;;;;;;5112253;28;20123;-65
2022/09/19 12:16:47;;;;;;;5.35;1.90;;;16.70;63.60;;;;;;5111967;28;20104;-65
2022/09/19 12:19:24;;;;;;;6.68;1.38;;;16.70;63.80;;;;;;5111743;28;20100;-66
2022/09/19 12:22:03;;;;;;;6.68;1.40;;;16.80;63.10;;;;;;5091437;28;20185;-65
2022/09/19 12:24:52;;;;;;;5.88;1.42;;;16.80;62.70;;;;;;5111953;28;20035;-65
2022/09/19 12:27:21;;;;;;;6.60;2.20;;;16.80;62.50;;;;;;5111604;28;20044;-65
2022/09/19 12:30:08;;;;;;;6.78;1.17;;;16.80;61.80;;;;;;5112353;28;20383;-65
2022/09/19 12:33:05;;;;;;;7.93;1.88;;;16.80;61.60;;;;;;5112071;28;20047;-65
2022/09/19 12:36:07;;;;;;;8.75;1.73;;;16.90;61.30;;;;;;5089897;28;20051;-68
2022/09/19 12:38:58;;;;;;;9.18;2.00;;;16.80;60.60;;;;;;5051719;28;20584;-67
2022/09/19 12:41:49;;;;;;;7.03;1.52;;;16.90;60.30;;;;;;5091832;28;20066;-68
2022/09/19 12:44:45;;;;;;;8.27;1.80;;;16.90;60.40;;;;;;5090286;28;20547;-67
2022/09/19 12:47:17;;;;;;;11.57;1.67;;;16.90;60.60;;;;;;5094652;28;20072;-68
2022/09/19 12:49:57;;;;;;;13.45;2.50;;;16.90;59.80;;;;;;5111670;28;20058;-68
2022/09/19 12:52:32;;;;;;;16.73;2.28;;;16.90;59.40;;;;;;5111688;28;20042;-68
2022/09/19 12:55:08;;;;;;;9.52;1.92;;;16.90;59.40;;;;;;5108612;28;20040;-69
2022/09/19 12:58:00;;;;;;;9.65;1.98;;;16.90;59.30;;;;;;5107863;28;20043;-68
2022/09/19 13:00:26;;;;;;;11.80;2.10;;;16.90;59.00;;;;;;5095049;28;20422;-68
2022/09/19 13:03:13;;;;;;;11.43;2.10;;;16.90;59.10;;;;;;5111302;28;20882;-68
2022/09/19 13:05:46;;;;;;;11.75;2.45;;;16.90;59.50;;;;;;5115700;28;20424;-68
2022/09/19 13:08:21;;;;;;;10.00;1.95;;;16.80;59.80;;;;;;5116626;27;20035;-67
2022/09/19 13:10:57;;;;;;;8.55;1.83;;;16.80;60.30;;;;;;5115301;28;20115;-68
2022/09/19 13:13:56;;;;;;;6.10;1.75;;;16.80;60.30;;;;;;5115201;28;20483;-68
2022/09/19 13:16:29;;;;;;;8.23;1.88;;;16.80;60.60;;;;;;5102456;28;20402;-68
2022/09/19 13:24:47;;;;;;;8.07;2.80;;;16.80;59.20;;;;;;5108381;28;20123;-68
2022/09/19 13:27:14;;;;;;;7.60;1.75;;;16.80;58.60;;;;;;5097678;28;20089;-68
2022/09/19 13:29:44;;;;;;;8.05;1.60;;;16.80;58.70;;;;;;5111820;28;20043;-68
2022/09/19 13:32:26;;;;;;;6.60;1.67;;;16.80;58.50;;;;;;5111819;27;20051;-68
2022/09/19 13:35:14;;;;;;;5.05;1.35;;;16.90;58.60;;;;;;5109332;28;20047;-68